createdAt,value
2022-10-28T00:00:08.056Z,14.97
2022-10-28T00:03:14.520Z,14.94
2022-10-28T00:06:23.142Z,14.90
2022-10-28T00:09:27.809Z,14.93
2022-10-28T00:12:37.599Z,15.04
2022-10-28T00:15:43.046Z,15.16
2022-10-28T00:18:48.371Z,15.18
2022-10-28T00:21:59.854Z,15.17
2022-10-28T00:25:04.554Z,15.12
2022-10-28T00:28:10.924Z,15.04
2022-10-28T00:31:19.406Z,15.00
2022-10-28T00:34:24.568Z,15.01
2022-10-28T00:37:29.517Z,15.01
2022-10-28T00:40:37.208Z,15.06
2022-10-28T00:43:47.875Z,15.08
2022-10-28T00:46:55.282Z,15.10
2022-10-28T00:50:05.815Z,15.12
2022-10-28T00:53:16.295Z,15.14
2022-10-28T00:56:22.575Z,15.15
2022-10-28T00:59:35.496Z,15.15
2022-10-28T01:02:45.912Z,15.11
2022-10-28T01:05:52.684Z,15.11
2022-10-28T01:08:59.949Z,15.06
2022-10-28T01:12:14.946Z,15.06
2022-10-28T01:15:33.416Z,15.02
2022-10-28T01:18:46.811Z,14.99
2022-10-28T01:22:13.044Z,14.94
2022-10-28T01:25:44.238Z,14.89
2022-10-28T01:29:28.054Z,14.88
2022-10-28T01:32:45.053Z,14.83
2022-10-28T01:35:54.101Z,14.77
2022-10-28T01:39:03.365Z,14.78
2022-10-28T01:42:22.198Z,14.73
2022-10-28T01:45:31.181Z,14.68
2022-10-28T01:48:44.237Z,14.65
2022-10-28T01:51:52.645Z,14.58
2022-10-28T01:55:02.558Z,14.60
2022-10-28T01:58:12.973Z,14.58
2022-10-28T02:01:19.346Z,14.54
2022-10-28T02:04:26.370Z,14.55
2022-10-28T02:07:31.431Z,14.57
2022-10-28T02:10:44.986Z,14.53
2022-10-28T02:14:00.887Z,14.49
2022-10-28T02:17:15.917Z,14.45
2022-10-28T02:20:34.929Z,14.40
2022-10-28T02:23:46.835Z,14.44
2022-10-28T02:26:58.494Z,14.48
2022-10-28T02:30:07.519Z,14.50
2022-10-28T02:33:15.599Z,14.53
2022-10-28T02:36:24.949Z,14.55
2022-10-28T02:39:34.770Z,14.57
2022-10-28T02:42:42.955Z,14.57
2022-10-28T02:45:50.292Z,14.65
2022-10-28T02:48:58.552Z,14.69
2022-10-28T02:52:08.140Z,14.70
2022-10-28T02:55:13.015Z,14.84
2022-10-28T02:58:18.282Z,14.86
2022-10-28T03:01:23.510Z,14.79
2022-10-28T03:04:28.066Z,14.78
2022-10-28T03:07:35.093Z,14.76
2022-10-28T03:10:40.561Z,14.74
2022-10-28T03:13:47.945Z,14.70
2022-10-28T03:16:54.589Z,14.70
2022-10-28T03:19:59.462Z,14.69
2022-10-28T03:23:05.989Z,14.73
2022-10-28T03:26:10.796Z,14.77
2022-10-28T03:29:15.902Z,14.79
2022-10-28T03:35:26.022Z,14.85
2022-10-28T03:38:32.388Z,14.87
2022-10-28T03:41:37.938Z,14.89
2022-10-28T03:44:45.615Z,14.92
2022-10-28T03:47:50.697Z,14.90
2022-10-28T03:50:55.912Z,14.89
2022-10-28T03:54:02.430Z,14.91
2022-10-28T03:57:07.690Z,14.89
2022-10-28T04:00:14.330Z,14.92
2022-10-28T04:03:19.432Z,14.87
2022-10-28T04:06:24.039Z,14.81
2022-10-28T04:09:30.228Z,14.81
2022-10-28T04:12:35.046Z,14.84
2022-10-28T04:15:40.044Z,14.87
2022-10-28T04:18:47.244Z,14.91
2022-10-28T04:21:52.123Z,14.91
2022-10-28T04:24:58.714Z,14.90
2022-10-28T04:28:04.016Z,14.91
2022-10-28T04:31:10.516Z,14.95
2022-10-28T04:34:15.117Z,14.94
2022-10-28T04:37:20.754Z,14.90
2022-10-28T04:40:27.344Z,14.94
2022-10-28T04:43:32.213Z,14.99
2022-10-28T04:46:36.886Z,14.95
2022-10-28T04:49:42.010Z,14.93
2022-10-28T04:52:47.129Z,14.91
2022-10-28T04:55:53.788Z,14.91
2022-10-28T04:58:59.052Z,14.93
2022-10-28T05:02:04.621Z,14.91
2022-10-28T05:05:09.665Z,14.91
2022-10-28T05:08:14.689Z,14.93
2022-10-28T05:11:21.189Z,14.91
2022-10-28T05:14:29.575Z,14.81
2022-10-28T05:17:34.513Z,14.77
2022-10-28T05:20:39.622Z,14.76
2022-10-28T05:23:47.515Z,14.77
2022-10-28T05:26:54.779Z,14.77
2022-10-28T05:30:01.528Z,14.83
2022-10-28T05:33:09.678Z,14.85
2022-10-28T05:36:16.011Z,14.93
2022-10-28T05:39:21.445Z,14.88
2022-10-28T05:42:28.936Z,14.88
2022-10-28T05:45:33.835Z,14.89
2022-10-28T05:48:39.290Z,14.84
2022-10-28T05:51:44.324Z,14.79
2022-10-28T05:54:49.125Z,14.80
2022-10-28T05:57:58.154Z,14.81
2022-10-28T06:01:03.364Z,14.84
2022-10-28T06:04:08.301Z,14.80
2022-10-28T06:07:13.232Z,14.78
2022-10-28T06:10:18.232Z,14.74
2022-10-28T06:13:24.111Z,14.74
2022-10-28T06:16:28.870Z,14.72
2022-10-28T06:19:34.015Z,14.74
2022-10-28T06:22:39.035Z,14.78
2022-10-28T06:25:44.035Z,14.82
2022-10-28T06:28:50.643Z,14.85
2022-10-28T06:31:56.039Z,14.88
2022-10-28T06:35:02.129Z,14.94
2022-10-28T06:38:09.229Z,14.96
2022-10-28T06:41:16.075Z,15.00
2022-10-28T06:44:22.773Z,15.10
2022-10-28T06:47:30.852Z,15.15
2022-10-28T06:50:37.159Z,15.26
2022-10-28T06:53:42.073Z,15.32
2022-10-28T06:56:49.529Z,15.36
2022-10-28T06:59:56.271Z,15.37
2022-10-28T07:03:03.304Z,15.37
2022-10-28T07:09:19.951Z,15.41
2022-10-28T07:12:24.882Z,15.45
2022-10-28T07:15:33.265Z,15.47
2022-10-28T07:18:38.436Z,15.51
2022-10-28T07:21:43.605Z,15.54
2022-10-28T07:24:49.025Z,15.56
2022-10-28T07:27:54.410Z,15.79
2022-10-28T07:31:04.537Z,15.82
2022-10-28T07:34:09.249Z,15.81
2022-10-28T07:37:14.741Z,15.84
2022-10-28T07:40:19.923Z,15.83
2022-10-28T07:43:25.165Z,15.83
2022-10-28T07:46:31.679Z,15.82
2022-10-28T07:49:37.719Z,15.81
2022-10-28T07:52:42.814Z,15.84
2022-10-28T07:55:48.015Z,15.85
2022-10-28T07:58:53.028Z,15.86
2022-10-28T08:01:59.635Z,15.88
2022-10-28T08:05:05.820Z,15.93
2022-10-28T08:08:11.630Z,15.99
2022-10-28T08:11:19.545Z,16.07
2022-10-28T08:14:24.475Z,16.13
2022-10-28T08:17:31.133Z,16.20
2022-10-28T08:20:35.986Z,16.26
2022-10-28T08:23:41.972Z,16.32
2022-10-28T08:26:47.130Z,16.38
2022-10-28T08:29:53.798Z,16.42
2022-10-28T08:33:00.398Z,16.52
2022-10-28T08:36:05.468Z,16.59
2022-10-28T08:39:10.721Z,16.61
2022-10-28T08:42:32.377Z,16.63
2022-10-28T08:45:45.267Z,16.64
2022-10-28T08:48:52.137Z,16.69
2022-10-28T08:52:02.350Z,16.77
2022-10-28T08:55:10.880Z,16.84
2022-10-28T08:58:22.254Z,16.93
2022-10-28T09:01:39.585Z,17.02
2022-10-28T09:04:47.800Z,17.13
2022-10-28T09:07:53.474Z,17.28
2022-10-28T09:11:18.019Z,17.35
2022-10-28T09:14:36.888Z,17.36
2022-10-28T09:17:51.141Z,17.43
2022-10-28T09:21:00.310Z,17.43
2022-10-28T09:24:16.809Z,17.41
2022-10-28T09:27:33.233Z,17.36
2022-10-28T09:30:51.922Z,17.28
2022-10-28T09:34:10.273Z,17.26
2022-10-28T09:37:22.622Z,17.27
2022-10-28T09:40:30.356Z,17.27
2022-10-28T09:43:37.132Z,17.35
2022-10-28T09:46:43.184Z,17.43
2022-10-28T09:49:50.438Z,17.56
2022-10-28T09:53:03.232Z,17.69
2022-10-28T09:59:17.196Z,17.94
2022-10-28T10:02:30.016Z,18.04
2022-10-28T10:05:41.320Z,18.23
2022-10-28T10:08:48.648Z,18.40
2022-10-28T10:11:57.126Z,18.52
2022-10-28T10:15:03.458Z,18.60
2022-10-28T10:18:17.432Z,18.71
2022-10-28T10:21:43.385Z,18.75
2022-10-28T10:24:50.627Z,18.77
2022-10-28T10:27:58.053Z,18.72
2022-10-28T10:31:06.639Z,18.68
2022-10-28T10:34:26.589Z,18.69
2022-10-28T10:37:37.067Z,18.59
2022-10-28T10:40:51.079Z,18.56
2022-10-28T10:43:56.929Z,18.52
2022-10-28T10:47:25.232Z,18.49
2022-10-28T10:50:34.558Z,18.49
2022-10-28T10:53:42.581Z,18.47
2022-10-28T10:56:49.416Z,18.49
2022-10-28T10:59:57.035Z,18.55
2022-10-28T11:03:03.446Z,18.59
2022-10-28T11:06:23.125Z,18.69
2022-10-28T11:09:33.824Z,18.76
2022-10-28T11:12:42.796Z,18.76
2022-10-28T11:16:01.753Z,18.83
2022-10-28T11:19:21.580Z,18.81
2022-10-28T11:22:43.281Z,18.82
2022-10-28T11:25:51.026Z,18.88
2022-10-28T11:29:10.748Z,18.90
2022-10-28T11:32:45.162Z,18.91
2022-10-28T11:36:12.449Z,18.90
2022-10-28T11:39:34.015Z,18.85
2022-10-28T11:42:47.347Z,18.80
2022-10-28T11:46:05.645Z,18.75
2022-10-28T11:49:39.600Z,18.74
2022-10-28T11:52:59.650Z,18.76
2022-10-28T11:56:12.117Z,18.85
2022-10-28T11:59:39.753Z,18.90
2022-10-28T12:03:00.883Z,19.02
2022-10-28T12:06:17.590Z,19.01
2022-10-28T12:09:31.466Z,19.02
2022-10-28T12:12:51.286Z,19.09
2022-10-28T12:16:02.749Z,19.24
2022-10-28T12:19:15.117Z,19.38
2022-10-28T12:22:24.978Z,19.58
2022-10-28T12:25:33.177Z,19.98
2022-10-28T12:28:44.076Z,20.35
2022-10-28T12:31:54.117Z,20.51
2022-10-28T12:35:05.229Z,20.87
2022-10-28T12:38:17.323Z,21.15
2022-10-28T12:41:25.871Z,21.31
2022-10-28T12:44:31.621Z,21.44
2022-10-28T12:47:44.161Z,21.73
2022-10-28T12:50:55.115Z,21.99
2022-10-28T12:54:05.716Z,22.21
2022-10-28T12:57:15.145Z,22.58
2022-10-28T13:00:24.205Z,22.75
2022-10-28T13:03:29.629Z,22.74
2022-10-28T13:07:09.339Z,22.72
2022-10-28T13:10:25.459Z,22.82
2022-10-28T13:13:51.756Z,22.72
2022-10-28T13:17:18.281Z,22.60
2022-10-28T13:20:32.513Z,22.51
2022-10-28T13:23:43.120Z,22.41
2022-10-28T13:26:51.856Z,22.38
2022-10-28T13:30:01.086Z,22.26
2022-10-28T13:33:09.141Z,22.22
2022-10-28T13:36:20.750Z,22.16
2022-10-28T13:39:27.743Z,22.15
2022-10-28T13:46:15.878Z,22.09
2022-10-28T13:49:38.868Z,21.86
2022-10-28T13:52:54.920Z,21.68
2022-10-28T13:56:23.127Z,21.50
2022-10-28T13:59:37.476Z,21.38
2022-10-28T14:03:02.978Z,21.26
2022-10-28T14:06:17.617Z,21.16
2022-10-28T14:09:31.102Z,21.05
2022-10-28T14:12:57.138Z,20.96
2022-10-28T14:16:29.605Z,20.90
2022-10-28T14:19:39.900Z,20.81
2022-10-28T14:22:55.303Z,20.74
2022-10-28T14:26:09.029Z,20.66
2022-10-28T14:29:32.190Z,20.60
2022-10-28T14:33:04.883Z,20.55
2022-10-28T14:40:05.119Z,20.50
2022-10-28T14:44:00.413Z,20.43
2022-10-28T14:47:28.359Z,20.36
2022-10-28T14:50:51.980Z,20.23
2022-10-28T14:54:05.798Z,20.11
2022-10-28T14:57:27.123Z,20.00
2022-10-28T15:00:49.066Z,19.88
2022-10-28T15:04:15.297Z,19.77
2022-10-28T15:07:27.909Z,19.71
2022-10-28T15:10:44.616Z,19.63
2022-10-28T15:14:01.111Z,19.57
2022-10-28T15:17:18.893Z,19.54
2022-10-28T15:20:29.051Z,19.50
2022-10-28T15:23:36.356Z,19.46
2022-10-28T15:26:51.185Z,19.39
2022-10-28T15:30:02.588Z,19.31
2022-10-28T15:33:24.894Z,19.24
2022-10-28T15:36:36.468Z,19.14
2022-10-28T15:39:43.108Z,19.06
2022-10-28T15:43:01.934Z,18.96
2022-10-28T15:46:25.187Z,18.90
2022-10-28T15:49:48.472Z,18.84
2022-10-28T15:52:58.071Z,18.78
2022-10-28T15:56:26.608Z,18.73
2022-10-28T15:59:35.947Z,18.67
2022-10-28T16:02:56.532Z,18.62
2022-10-28T16:06:03.106Z,18.56
2022-10-28T16:09:19.936Z,18.48
2022-10-28T16:12:33.890Z,18.43
2022-10-28T16:15:48.862Z,18.37
2022-10-28T16:19:06.916Z,18.35
2022-10-28T16:22:22.327Z,18.30
2022-10-28T16:25:33.565Z,18.28
2022-10-28T16:28:45.502Z,18.26
2022-10-28T16:31:56.265Z,18.19
2022-10-28T16:35:24.971Z,18.15
2022-10-28T16:38:31.807Z,18.10
2022-10-28T16:41:42.151Z,18.06
2022-10-28T16:44:59.839Z,18.00
2022-10-28T16:48:16.492Z,17.94
2022-10-28T16:51:28.316Z,17.89
2022-10-28T16:54:43.425Z,17.81
2022-10-28T16:57:58.256Z,17.78
2022-10-28T17:01:09.555Z,17.73
2022-10-28T17:04:27.770Z,17.68
2022-10-28T17:07:42.822Z,17.63
2022-10-28T17:10:51.163Z,17.59
2022-10-28T17:14:00.638Z,17.53
2022-10-28T17:17:11.747Z,17.44
2022-10-28T17:20:33.477Z,17.36
2022-10-28T17:23:44.935Z,17.24
2022-10-28T17:26:58.148Z,17.13
2022-10-28T17:30:10.324Z,17.06
2022-10-28T17:33:17.568Z,16.99
2022-10-28T17:36:26.681Z,16.97
2022-10-28T17:39:45.222Z,16.86
2022-10-28T17:42:54.570Z,16.77
2022-10-28T17:46:11.592Z,16.72
2022-10-28T17:49:23.693Z,16.72
2022-10-28T17:52:43.887Z,16.68
2022-10-28T17:56:17.480Z,16.58
2022-10-28T17:59:28.377Z,16.54
2022-10-28T18:02:37.268Z,16.47
2022-10-28T18:05:56.988Z,16.38
2022-10-28T18:09:19.253Z,16.36
2022-10-28T18:12:40.080Z,16.32
2022-10-28T18:15:55.211Z,16.24
2022-10-28T18:19:08.853Z,16.18
2022-10-28T18:22:23.627Z,16.16
2022-10-28T18:25:31.865Z,16.08
2022-10-28T18:28:41.377Z,16.03
2022-10-28T18:31:55.415Z,15.96
2022-10-28T18:35:11.750Z,15.89
2022-10-28T18:38:29.669Z,15.88
2022-10-28T18:41:42.994Z,15.84
2022-10-28T18:45:00.805Z,15.79
2022-10-28T18:48:09.169Z,15.75
2022-10-28T18:51:18.635Z,15.72
2022-10-28T18:54:25.462Z,15.71
2022-10-28T18:57:33.526Z,15.68
2022-10-28T19:00:42.064Z,15.64
2022-10-28T19:03:51.823Z,15.64
2022-10-28T19:07:00.796Z,15.61
2022-10-28T19:10:09.913Z,15.57
2022-10-28T19:13:27.695Z,15.58
2022-10-28T19:16:43.375Z,15.62
2022-10-28T19:19:51.552Z,15.59
2022-10-28T19:22:58.481Z,15.55
2022-10-28T19:26:28.732Z,15.52
2022-10-28T19:29:54.391Z,15.46
2022-10-28T19:33:15.715Z,15.47
2022-10-28T19:37:23.265Z,15.41
2022-10-28T19:40:46.472Z,15.38
2022-10-28T19:44:02.688Z,15.35
2022-10-28T19:47:12.780Z,15.33
2022-10-28T19:50:38.373Z,15.31
2022-10-28T19:54:09.023Z,15.34
2022-10-28T19:57:20.993Z,15.34
2022-10-28T20:00:30.157Z,15.34
2022-10-28T20:03:49.246Z,15.36
2022-10-28T20:10:25.617Z,15.31
2022-10-28T20:13:39.001Z,15.26
2022-10-28T20:16:47.525Z,15.18
2022-10-28T20:19:55.756Z,15.14
2022-10-28T20:27:28.496Z,14.95
2022-10-28T20:30:35.772Z,14.93
2022-10-28T20:33:46.784Z,14.92
2022-10-28T20:36:54.143Z,14.92
2022-10-28T20:40:06.295Z,14.88
2022-10-28T20:43:24.258Z,14.85
2022-10-28T20:46:34.046Z,14.82
2022-10-28T20:49:45.110Z,14.78
2022-10-28T20:52:54.476Z,14.71
2022-10-28T20:56:04.309Z,14.68
2022-10-28T20:59:14.790Z,14.64
2022-10-28T21:02:29.181Z,14.67
2022-10-28T21:05:37.942Z,14.62
2022-10-28T21:08:48.931Z,14.62
2022-10-28T21:11:56.181Z,14.56
2022-10-28T21:15:04.430Z,14.51
2022-10-28T21:18:15.146Z,14.54
2022-10-28T21:21:24.829Z,14.45
2022-10-28T21:24:33.680Z,14.43
2022-10-28T21:27:40.635Z,14.39
2022-10-28T21:30:51.017Z,14.42
2022-10-28T21:34:02.975Z,14.39
2022-10-28T21:37:13.248Z,14.35
2022-10-28T21:40:25.553Z,14.40
2022-10-28T21:43:34.626Z,14.38
2022-10-28T21:46:42.226Z,14.40
2022-10-28T21:49:48.519Z,14.38
2022-10-28T21:52:57.527Z,14.35
2022-10-28T21:56:18.823Z,14.33
2022-10-28T21:59:24.496Z,14.30
2022-10-28T22:02:32.929Z,14.36
2022-10-28T22:05:52.898Z,14.32
2022-10-28T22:09:03.834Z,14.30
2022-10-28T22:12:11.308Z,14.26
2022-10-28T22:15:17.150Z,14.29
2022-10-28T22:18:29.747Z,14.27
2022-10-28T22:21:51.553Z,14.30
2022-10-28T22:25:14.136Z,14.26
2022-10-28T22:28:37.967Z,14.23
2022-10-28T22:31:47.822Z,14.23
2022-10-28T22:34:57.317Z,14.22
2022-10-28T22:38:06.542Z,14.20
2022-10-28T22:41:16.216Z,14.15
2022-10-28T22:44:28.447Z,14.13
2022-10-28T22:47:39.553Z,14.11
2022-10-28T22:50:48.586Z,14.14
2022-10-28T22:53:56.593Z,14.05
2022-10-28T22:57:04.847Z,14.02
2022-10-28T23:00:12.703Z,14.04
2022-10-28T23:03:18.646Z,14.01
2022-10-28T23:06:30.186Z,13.97
2022-10-28T23:09:38.213Z,13.90
2022-10-28T23:12:44.522Z,13.87
2022-10-28T23:15:51.798Z,13.87
2022-10-28T23:18:58.624Z,13.82
2022-10-28T23:22:11.835Z,13.76
2022-10-28T23:25:18.554Z,13.71
2022-10-28T23:28:27.070Z,13.69
2022-10-28T23:31:33.218Z,13.69
2022-10-28T23:34:39.565Z,13.65
2022-10-28T23:37:48.418Z,13.60
2022-10-28T23:40:59.273Z,13.59
2022-10-28T23:44:05.629Z,13.56
2022-10-28T23:47:11.584Z,13.53
2022-10-28T23:50:21.538Z,13.51
2022-10-28T23:53:31.591Z,13.52
2022-10-28T23:56:39.227Z,13.43
2022-10-28T23:59:45.290Z,13.43
